createdAt,value
2022-10-14T00:00:36.079Z,24.27
2022-10-14T00:03:02.944Z,23.60
2022-10-14T00:05:29.503Z,23.57
2022-10-14T00:07:56.139Z,23.13
2022-10-14T00:10:22.804Z,23.80
2022-10-14T00:12:50.422Z,22.30
2022-10-14T00:15:17.541Z,23.50
2022-10-14T00:17:44.137Z,24.30
2022-10-14T00:20:11.049Z,23.67
2022-10-14T00:22:37.616Z,23.57
2022-10-14T00:25:04.516Z,23.83
2022-10-14T00:27:31.996Z,25.33
2022-10-14T00:30:01.761Z,24.47
2022-10-14T00:32:28.373Z,23.50
2022-10-14T00:34:55.036Z,24.37
2022-10-14T00:37:21.951Z,24.60
2022-10-14T00:39:50.561Z,24.93
2022-10-14T00:42:24.593Z,23.20
2022-10-14T00:45:02.174Z,24.50
2022-10-14T00:47:30.363Z,24.70
2022-10-14T00:49:59.182Z,25.20
2022-10-14T00:52:29.403Z,25.43
2022-10-14T00:55:27.031Z,25.10
2022-10-14T00:57:53.798Z,24.07
2022-10-14T01:00:21.563Z,26.17
2022-10-14T01:02:48.911Z,25.97
2022-10-14T01:05:17.696Z,26.27
2022-10-14T01:07:59.952Z,26.07
2022-10-14T01:10:41.536Z,26.87
2022-10-14T01:13:25.092Z,26.03
2022-10-14T01:16:25.480Z,25.37
2022-10-14T01:19:00.384Z,26.20
2022-10-14T01:21:34.071Z,24.90
2022-10-14T01:24:12.364Z,26.70
2022-10-14T01:27:16.072Z,25.37
2022-10-14T01:30:00.947Z,25.63
2022-10-14T01:32:48.915Z,25.20
2022-10-14T01:35:44.716Z,25.03
2022-10-14T01:38:17.041Z,23.87
2022-10-14T01:40:56.654Z,24.87
2022-10-14T01:43:27.127Z,24.70
2022-10-14T01:45:55.692Z,24.77
2022-10-14T01:48:26.749Z,25.70
2022-10-14T01:50:56.937Z,24.47
2022-10-14T01:53:33.275Z,24.80
2022-10-14T01:56:02.345Z,23.90
2022-10-14T01:58:31.705Z,24.20
2022-10-14T02:01:04.394Z,22.97
2022-10-14T02:03:42.128Z,24.03
2022-10-14T02:06:37.974Z,24.67
2022-10-14T02:09:11.989Z,23.93
2022-10-14T02:11:59.806Z,22.70
2022-10-14T02:14:50.727Z,24.10
2022-10-14T02:17:29.827Z,23.93
2022-10-14T02:20:25.192Z,22.93
2022-10-14T02:22:59.128Z,23.37
2022-10-14T02:25:30.927Z,23.30
2022-10-14T02:27:59.908Z,22.37
2022-10-14T02:30:28.999Z,22.33
2022-10-14T02:32:58.207Z,23.63
2022-10-14T02:35:25.251Z,22.97
2022-10-14T02:37:55.523Z,22.63
2022-10-14T02:40:42.900Z,23.43
2022-10-14T02:43:10.934Z,22.87
2022-10-14T02:45:42.826Z,23.17
2022-10-14T02:48:10.671Z,23.10
2022-10-14T02:50:37.879Z,22.80
2022-10-14T02:53:04.737Z,21.60
2022-10-14T02:55:31.401Z,23.10
2022-10-14T02:57:59.244Z,24.50
2022-10-14T03:00:26.785Z,22.70
2022-10-14T03:02:54.812Z,24.33
2022-10-14T03:05:21.573Z,24.80
2022-10-14T03:07:48.175Z,25.40
2022-10-14T03:10:18.292Z,25.53
2022-10-14T03:12:44.989Z,25.73
2022-10-14T03:15:20.846Z,25.57
2022-10-14T03:17:47.605Z,26.37
2022-10-14T03:20:19.475Z,27.43
2022-10-14T03:22:51.091Z,26.60
2022-10-14T03:25:19.080Z,27.00
2022-10-14T03:27:55.424Z,26.63
2022-10-14T03:30:32.619Z,25.50
2022-10-14T03:33:05.266Z,26.53
2022-10-14T03:35:51.356Z,28.37
2022-10-14T03:38:25.485Z,28.23
2022-10-14T03:40:53.285Z,27.70
2022-10-14T03:43:20.312Z,27.80
2022-10-14T03:45:55.958Z,28.10
2022-10-14T03:48:24.580Z,27.43
2022-10-14T03:50:55.469Z,28.10
2022-10-14T03:53:23.489Z,28.07
2022-10-14T03:55:50.478Z,27.63
2022-10-14T03:58:17.144Z,27.80
2022-10-14T04:00:49.575Z,29.10
2022-10-14T04:03:27.530Z,29.93
2022-10-14T04:05:55.892Z,28.73
2022-10-14T04:08:25.151Z,26.93
2022-10-14T04:10:57.672Z,28.33
2022-10-14T04:13:26.585Z,28.87
2022-10-14T04:15:53.564Z,26.43
2022-10-14T04:18:27.928Z,26.60
2022-10-14T04:21:04.423Z,26.90
2022-10-14T04:23:31.429Z,29.27
2022-10-14T04:26:05.611Z,27.17
2022-10-14T04:28:33.190Z,28.30
2022-10-14T04:31:07.560Z,27.97
2022-10-14T04:33:46.480Z,27.50
2022-10-14T04:36:20.027Z,27.27
2022-10-14T04:38:46.595Z,26.87
2022-10-14T04:41:13.174Z,29.00
2022-10-14T04:43:45.788Z,27.40
2022-10-14T04:46:31.385Z,27.83
2022-10-14T04:48:58.316Z,27.97
2022-10-14T04:51:29.311Z,31.40
2022-10-14T04:54:11.324Z,31.43
2022-10-14T04:56:53.492Z,28.87
2022-10-14T04:59:20.090Z,29.13
2022-10-14T05:02:05.459Z,29.57
2022-10-14T05:04:40.547Z,27.60
2022-10-14T05:07:08.247Z,29.20
2022-10-14T05:09:35.054Z,27.07
2022-10-14T05:12:02.815Z,28.00
2022-10-14T05:14:44.178Z,27.40
2022-10-14T05:17:26.102Z,29.07
2022-10-14T05:19:53.692Z,28.90
2022-10-14T05:22:23.343Z,30.30
2022-10-14T05:24:50.381Z,29.87
2022-10-14T05:27:19.082Z,30.53
2022-10-14T05:29:46.134Z,31.33
2022-10-14T05:32:13.736Z,31.17
2022-10-14T05:34:48.819Z,31.90
2022-10-14T05:37:23.864Z,32.00
2022-10-14T05:39:52.534Z,31.33
2022-10-14T05:42:23.189Z,31.83
2022-10-14T05:44:52.888Z,32.17
2022-10-14T05:47:19.822Z,32.57
2022-10-14T05:49:49.539Z,30.30
2022-10-14T05:52:17.576Z,30.17
2022-10-14T05:54:44.854Z,30.93
2022-10-14T05:57:14.884Z,30.03
2022-10-14T05:59:41.855Z,30.53
2022-10-14T06:02:09.902Z,30.17
2022-10-14T06:04:39.749Z,29.17
2022-10-14T06:07:10.147Z,28.70
2022-10-14T06:09:38.411Z,28.37
2022-10-14T06:12:05.611Z,30.10
2022-10-14T06:14:32.948Z,29.67
2022-10-14T06:16:59.956Z,31.20
2022-10-14T06:19:26.767Z,31.03
2022-10-14T06:21:53.725Z,30.60
2022-10-14T06:24:20.397Z,31.00
2022-10-14T06:26:48.485Z,31.53
2022-10-14T06:29:16.133Z,29.53
2022-10-14T06:31:43.600Z,30.20
2022-10-14T06:34:10.247Z,30.73
2022-10-14T06:36:37.154Z,30.27
2022-10-14T06:39:04.890Z,30.73
2022-10-14T06:41:32.763Z,31.37
2022-10-14T06:43:59.424Z,32.27
2022-10-14T06:46:26.059Z,30.33
2022-10-14T06:48:52.773Z,31.13
2022-10-14T06:51:19.398Z,31.60
2022-10-14T06:53:45.989Z,31.83
2022-10-14T06:56:12.651Z,32.20
2022-10-14T06:58:39.363Z,33.37
2022-10-14T07:01:07.579Z,32.43
2022-10-14T07:03:39.279Z,31.57
2022-10-14T07:06:07.456Z,32.00
2022-10-14T07:08:34.233Z,33.17
2022-10-14T07:11:01.583Z,33.97
2022-10-14T07:13:28.199Z,32.83
2022-10-14T07:15:54.850Z,34.13
2022-10-14T07:18:21.833Z,33.43
2022-10-14T07:20:48.824Z,34.87
2022-10-14T07:23:16.939Z,34.90
2022-10-14T07:25:44.081Z,34.27
2022-10-14T07:28:10.867Z,35.43
2022-10-14T07:30:37.832Z,35.57
2022-10-14T07:33:04.774Z,35.20
2022-10-14T07:35:31.429Z,34.67
2022-10-14T07:37:59.022Z,35.83
2022-10-14T07:40:25.919Z,34.87
2022-10-14T07:42:52.570Z,34.50
2022-10-14T07:45:21.014Z,35.20
2022-10-14T07:47:50.148Z,32.67
2022-10-14T07:50:17.615Z,35.07
2022-10-14T07:52:44.333Z,34.27
2022-10-14T07:55:11.072Z,33.70
2022-10-14T07:57:37.727Z,34.07
2022-10-14T08:00:05.312Z,34.50
2022-10-14T08:02:38.678Z,34.13
2022-10-14T08:05:32.947Z,34.40
2022-10-14T08:07:52.294Z,33.80
2022-10-14T08:10:18.933Z,33.93
2022-10-14T08:12:46.221Z,32.30
2022-10-14T08:15:12.851Z,31.33
2022-10-14T08:17:39.487Z,31.60
2022-10-14T08:20:06.653Z,31.17
2022-10-14T08:22:33.294Z,29.70
2022-10-14T08:24:59.895Z,29.17
2022-10-14T08:27:26.677Z,27.87
2022-10-14T08:29:54.286Z,28.70
2022-10-14T08:32:21.282Z,27.67
2022-10-14T08:34:48.115Z,26.50
2022-10-14T08:37:14.787Z,26.50
2022-10-14T08:39:41.397Z,27.40
2022-10-14T08:42:30.793Z,26.53
2022-10-14T08:45:02.760Z,25.47
2022-10-14T08:47:37.452Z,25.10
2022-10-14T08:50:29.109Z,24.23
2022-10-14T08:53:18.331Z,25.03
2022-10-14T08:55:48.091Z,23.23
2022-10-14T08:58:21.542Z,23.30
2022-10-14T09:00:51.857Z,24.37
2022-10-14T09:03:23.213Z,23.87
2022-10-14T09:05:59.681Z,22.73
2022-10-14T09:08:37.935Z,23.23
2022-10-14T09:11:09.147Z,21.80
2022-10-14T09:13:39.131Z,25.13
2022-10-14T09:16:14.106Z,24.87
2022-10-14T09:18:50.953Z,24.00
2022-10-14T09:21:51.778Z,23.70
2022-10-14T09:24:25.216Z,23.47
2022-10-14T09:27:06.940Z,22.37
2022-10-14T09:29:45.955Z,22.90
2022-10-14T09:32:22.504Z,23.83
2022-10-14T09:34:51.838Z,22.30
2022-10-14T09:37:32.367Z,24.13
2022-10-14T09:40:30.039Z,23.97
2022-10-14T09:43:12.945Z,22.20
2022-10-14T09:46:07.847Z,24.57
2022-10-14T09:48:48.816Z,23.17
2022-10-14T09:51:21.698Z,23.47
2022-10-14T09:53:54.386Z,24.03
2022-10-14T09:56:37.469Z,22.43
2022-10-14T09:59:39.485Z,23.13
2022-10-14T10:02:15.945Z,23.40
2022-10-14T10:04:47.714Z,24.53
2022-10-14T10:07:31.237Z,24.13
2022-10-14T10:10:05.021Z,24.53
2022-10-14T10:12:34.399Z,23.13
2022-10-14T10:15:04.332Z,23.93
2022-10-14T10:17:33.430Z,24.63
2022-10-14T10:20:16.574Z,26.70
2022-10-14T10:22:43.341Z,24.60
2022-10-14T10:25:10.107Z,25.27
2022-10-14T10:27:45.742Z,24.93
2022-10-14T10:30:21.381Z,23.07
2022-10-14T10:33:05.146Z,23.00
2022-10-14T10:36:01.985Z,21.10
2022-10-14T10:38:45.500Z,21.07
2022-10-14T10:41:36.501Z,21.33
2022-10-14T10:44:15.287Z,21.10
2022-10-14T10:46:52.878Z,20.90
2022-10-14T10:49:32.479Z,21.13
2022-10-14T10:52:21.679Z,20.67
2022-10-14T10:55:03.727Z,21.17
2022-10-14T10:57:42.325Z,20.00
2022-10-14T11:00:18.046Z,20.27
2022-10-14T11:03:00.391Z,20.47
2022-10-14T11:05:42.891Z,20.27
2022-10-14T11:08:40.505Z,20.03
2022-10-14T11:11:51.882Z,20.00
2022-10-14T11:14:33.272Z,19.83
2022-10-14T11:17:25.793Z,21.03
2022-10-14T11:20:29.678Z,21.07
2022-10-14T11:23:16.363Z,19.13
2022-10-14T11:26:10.877Z,20.80
2022-10-14T11:28:57.480Z,20.53
2022-10-14T11:31:39.084Z,19.63
2022-10-14T11:34:47.889Z,21.07
2022-10-14T11:37:56.730Z,21.43
2022-10-14T11:40:39.223Z,19.47
2022-10-14T11:43:33.513Z,21.37
2022-10-14T11:46:10.275Z,20.50
2022-10-14T11:48:51.145Z,20.03
2022-10-14T11:51:44.934Z,19.37
2022-10-14T11:54:28.557Z,19.73
2022-10-14T11:57:02.157Z,19.67
2022-10-14T11:59:49.942Z,19.70
2022-10-14T12:02:28.250Z,20.07
2022-10-14T12:05:06.547Z,19.30
2022-10-14T12:08:01.899Z,19.60
2022-10-14T12:10:38.396Z,20.50
2022-10-14T12:13:12.850Z,19.17
2022-10-14T12:15:41.813Z,18.80
2022-10-14T12:18:10.182Z,17.90
2022-10-14T12:20:48.493Z,17.93
2022-10-14T12:23:33.747Z,16.70
2022-10-14T12:26:10.725Z,15.03
2022-10-14T12:28:38.181Z,14.70
2022-10-14T12:31:37.601Z,15.07
2022-10-14T12:34:18.758Z,14.47
2022-10-14T12:36:50.567Z,15.13
2022-10-14T12:39:17.398Z,15.57
2022-10-14T12:42:13.340Z,14.90
2022-10-14T12:44:55.900Z,15.47
2022-10-14T12:47:35.993Z,12.67
2022-10-14T12:50:35.265Z,12.23
2022-10-14T12:53:06.366Z,10.53
2022-10-14T12:55:51.089Z,10.80
2022-10-14T12:58:26.161Z,11.43
2022-10-14T13:00:56.100Z,11.20
2022-10-14T13:03:27.373Z,12.07
2022-10-14T13:06:37.719Z,12.03
2022-10-14T13:09:15.058Z,12.00
2022-10-14T13:11:46.364Z,11.37
2022-10-14T13:14:53.883Z,11.93
2022-10-14T13:17:47.255Z,12.70
2022-10-14T13:20:35.528Z,11.30
2022-10-14T13:23:32.344Z,12.70
2022-10-14T13:26:13.609Z,11.83
2022-10-14T13:29:17.559Z,11.70
2022-10-14T13:32:17.385Z,12.53
2022-10-14T13:34:51.694Z,13.40
2022-10-14T13:37:30.514Z,13.03
2022-10-14T13:39:58.316Z,12.07
2022-10-14T13:42:28.871Z,11.07
2022-10-14T13:45:04.697Z,11.87
2022-10-14T13:47:31.580Z,12.17
2022-10-14T13:49:58.266Z,11.97
2022-10-14T13:52:26.110Z,11.57
2022-10-14T13:55:14.165Z,12.57
2022-10-14T13:58:21.134Z,14.10
2022-10-14T14:01:04.060Z,11.97
2022-10-14T14:03:41.442Z,11.53
2022-10-14T14:06:12.814Z,12.17
2022-10-14T14:08:46.032Z,11.60
2022-10-14T14:11:28.460Z,12.10
2022-10-14T14:14:06.579Z,11.57
2022-10-14T14:16:40.845Z,12.13
2022-10-14T14:19:26.733Z,11.17
2022-10-14T14:22:24.407Z,12.20
2022-10-14T14:24:51.988Z,12.10
2022-10-14T14:27:22.053Z,11.80
2022-10-14T14:29:53.443Z,11.50
2022-10-14T14:32:24.819Z,11.10
2022-10-14T14:34:51.604Z,12.97
2022-10-14T14:37:53.349Z,12.90
2022-10-14T14:40:24.980Z,13.60
2022-10-14T14:43:00.342Z,12.27
2022-10-14T14:45:42.423Z,12.60
2022-10-14T14:48:13.764Z,11.53
2022-10-14T14:50:45.082Z,11.23
2022-10-14T14:53:24.016Z,12.20
2022-10-14T14:55:56.573Z,13.20
2022-10-14T14:58:39.207Z,12.10
2022-10-14T15:01:23.989Z,12.33
2022-10-14T15:04:12.750Z,13.17
2022-10-14T15:06:59.827Z,12.27
2022-10-14T15:09:33.097Z,12.50
2022-10-14T15:12:02.920Z,12.27
2022-10-14T15:14:41.494Z,12.07
2022-10-14T15:17:36.224Z,12.93
2022-10-14T15:20:31.498Z,11.97
2022-10-14T15:22:58.096Z,12.40
2022-10-14T15:25:30.840Z,11.73
2022-10-14T15:28:01.878Z,12.70
2022-10-14T15:30:38.994Z,11.93
2022-10-14T15:33:20.941Z,12.43
2022-10-14T15:35:54.469Z,12.53
2022-10-14T15:38:21.307Z,12.60
2022-10-14T15:40:48.793Z,12.97
2022-10-14T15:43:23.446Z,15.13
2022-10-14T15:46:15.348Z,11.80
2022-10-14T15:48:48.447Z,13.30
2022-10-14T15:51:19.492Z,12.97
2022-10-14T15:53:46.472Z,12.57
2022-10-14T15:56:13.189Z,12.93
2022-10-14T15:58:39.935Z,11.87
2022-10-14T16:01:06.826Z,13.40
2022-10-14T16:03:37.164Z,12.50
2022-10-14T16:06:09.975Z,12.23
2022-10-14T16:08:38.606Z,11.50
2022-10-14T16:11:26.049Z,11.30
2022-10-14T16:13:54.334Z,12.50
2022-10-14T16:16:26.809Z,11.20
2022-10-14T16:18:53.404Z,11.20
2022-10-14T16:21:20.050Z,11.37
2022-10-14T16:23:46.657Z,10.90
2022-10-14T16:26:14.317Z,11.13
2022-10-14T16:28:40.926Z,11.07
2022-10-14T16:31:12.465Z,11.57
2022-10-14T16:33:41.752Z,10.57
2022-10-14T16:36:13.862Z,11.50
2022-10-14T16:38:40.666Z,10.60
2022-10-14T16:41:09.884Z,10.23
2022-10-14T16:43:37.338Z,11.40
2022-10-14T16:46:05.454Z,11.67
2022-10-14T16:48:35.756Z,13.37
2022-10-14T16:51:03.268Z,12.73
2022-10-14T16:53:51.140Z,10.80
2022-10-14T16:56:39.446Z,11.93
2022-10-14T16:59:09.726Z,12.53
2022-10-14T17:01:36.385Z,11.90
2022-10-14T17:04:03.876Z,11.53
2022-10-14T17:06:30.610Z,11.30
2022-10-14T17:08:57.440Z,11.60
2022-10-14T17:11:24.820Z,12.30
2022-10-14T17:13:53.032Z,12.40
2022-10-14T17:16:20.046Z,12.67
2022-10-14T17:21:18.943Z,11.07
2022-10-14T17:23:45.787Z,11.07
2022-10-14T17:26:18.199Z,12.50
2022-10-14T17:28:46.780Z,11.30
2022-10-14T17:31:16.646Z,10.73
2022-10-14T17:33:43.383Z,9.90
2022-10-14T17:36:19.482Z,11.17
2022-10-14T17:38:47.337Z,9.67
2022-10-14T17:41:15.204Z,13.43
2022-10-14T17:43:41.864Z,9.03
2022-10-14T17:46:11.779Z,10.10
2022-10-14T17:48:42.555Z,10.10
2022-10-14T17:51:11.156Z,8.93
2022-10-14T17:53:38.049Z,9.17
2022-10-14T17:56:12.103Z,9.63
2022-10-14T17:58:39.560Z,9.20
2022-10-14T18:01:08.750Z,8.47
2022-10-14T18:03:36.927Z,8.67
2022-10-14T18:06:16.682Z,8.47
2022-10-14T18:08:46.486Z,8.63
2022-10-14T18:11:13.217Z,9.20
2022-10-14T18:16:14.220Z,9.57
2022-10-14T18:18:41.893Z,8.07
2022-10-14T18:21:09.641Z,8.27
2022-10-14T18:23:39.146Z,8.63
2022-10-14T18:26:09.482Z,8.37
2022-10-14T18:28:41.943Z,9.53
2022-10-14T18:31:11.657Z,8.33
2022-10-14T18:33:39.428Z,8.20
2022-10-14T18:36:07.285Z,8.10
2022-10-14T18:38:34.855Z,8.40
2022-10-14T18:41:04.778Z,7.60
2022-10-14T18:43:32.605Z,8.23
2022-10-14T18:46:05.083Z,8.73
2022-10-14T18:48:32.025Z,8.97
2022-10-14T18:51:03.061Z,7.60
2022-10-14T18:53:31.988Z,8.73
2022-10-14T18:56:03.664Z,9.13
2022-10-14T18:58:30.328Z,8.93
2022-10-14T19:00:57.012Z,8.87
2022-10-14T19:03:23.595Z,8.70
2022-10-14T19:05:51.325Z,8.00
2022-10-14T19:08:18.685Z,6.53
2022-10-14T19:10:45.354Z,7.70
2022-10-14T19:13:12.165Z,8.07
2022-10-14T19:15:46.106Z,7.50
2022-10-14T19:18:15.476Z,8.03
2022-10-14T19:20:42.169Z,9.07
2022-10-14T19:23:08.969Z,7.47
2022-10-14T19:25:36.620Z,7.43
2022-10-14T19:28:03.412Z,7.00
2022-10-14T19:30:30.002Z,7.70
2022-10-14T19:32:56.672Z,7.63
2022-10-14T19:35:23.266Z,7.37
2022-10-14T19:37:49.867Z,6.90
2022-10-14T19:40:19.842Z,6.87
2022-10-14T19:42:49.501Z,9.37
2022-10-14T19:45:16.077Z,7.07
2022-10-14T19:47:42.767Z,7.50
2022-10-14T19:50:09.962Z,8.33
2022-10-14T19:52:36.591Z,6.20
2022-10-14T19:55:03.479Z,8.00
2022-10-14T19:57:30.116Z,7.53
2022-10-14T19:59:56.772Z,6.70
2022-10-14T20:02:23.399Z,6.03
2022-10-14T20:04:50.089Z,7.30
2022-10-14T20:07:16.722Z,8.87
2022-10-14T20:09:43.512Z,6.03
2022-10-14T20:12:10.367Z,6.10
2022-10-14T20:14:36.991Z,7.70
2022-10-14T20:17:03.756Z,6.00
2022-10-14T20:19:30.674Z,6.10
2022-10-14T20:21:57.489Z,6.67
2022-10-14T20:24:24.150Z,6.93
2022-10-14T20:26:50.766Z,6.17
2022-10-14T20:29:17.507Z,6.23
2022-10-14T20:31:44.202Z,5.90
2022-10-14T20:34:11.454Z,6.20
2022-10-14T20:36:38.192Z,6.10
2022-10-14T20:39:04.954Z,5.53
2022-10-14T20:41:31.698Z,6.30
2022-10-14T20:43:58.506Z,5.70
2022-10-14T20:46:25.287Z,6.40
2022-10-14T20:48:56.951Z,6.80
2022-10-14T20:51:24.262Z,6.57
2022-10-14T20:53:58.823Z,13.73
2022-10-14T20:56:31.105Z,7.17
2022-10-14T20:58:59.099Z,10.13
2022-10-14T21:01:27.291Z,14.20
2022-10-14T21:03:54.922Z,13.30
2022-10-14T21:06:23.985Z,8.83
2022-10-14T21:08:52.242Z,8.13
2022-10-14T21:11:21.975Z,6.47
2022-10-14T21:13:53.321Z,6.43
2022-10-14T21:16:20.926Z,7.50
2022-10-14T21:18:53.561Z,13.53
2022-10-14T21:21:26.547Z,13.57
2022-10-14T21:23:53.984Z,13.50
2022-10-14T21:26:20.684Z,6.33
2022-10-14T21:28:47.393Z,5.67
2022-10-14T21:31:17.594Z,6.20
2022-10-14T21:33:47.153Z,7.80
2022-10-14T21:36:15.561Z,5.90
2022-10-14T21:38:42.517Z,10.77
2022-10-14T21:41:09.379Z,7.10
2022-10-14T21:43:38.628Z,26.90
2022-10-14T21:46:13.319Z,6.73
2022-10-14T21:48:41.357Z,5.90
2022-10-14T21:51:11.142Z,5.40
2022-10-14T21:53:39.080Z,5.53
2022-10-14T21:56:06.153Z,4.90
2022-10-14T21:58:33.839Z,6.03
2022-10-14T22:01:02.206Z,5.47
2022-10-14T22:03:28.987Z,5.90
2022-10-14T22:06:00.208Z,5.30
2022-10-14T22:08:35.413Z,6.07
2022-10-14T22:11:03.042Z,5.80
2022-10-14T22:13:30.613Z,5.37
2022-10-14T22:15:57.635Z,6.00
2022-10-14T22:18:24.553Z,5.83
2022-10-14T22:21:00.620Z,5.37
2022-10-14T22:23:27.384Z,5.40
2022-10-14T22:25:54.285Z,5.27
2022-10-14T22:28:20.977Z,5.30
2022-10-14T22:30:47.722Z,5.40
2022-10-14T22:33:14.325Z,5.30
2022-10-14T22:35:41.088Z,5.57
2022-10-14T22:38:07.865Z,5.17
2022-10-14T22:40:34.693Z,5.40
2022-10-14T22:43:01.337Z,5.50
2022-10-14T22:45:28.233Z,6.00
2022-10-14T22:47:54.871Z,6.23
2022-10-14T22:50:21.512Z,6.37
2022-10-14T22:52:48.132Z,5.90
2022-10-14T22:55:14.861Z,6.17
2022-10-14T22:57:41.527Z,6.43
2022-10-14T23:00:09.022Z,6.23
2022-10-14T23:02:35.651Z,6.30
2022-10-14T23:05:02.709Z,6.80
2022-10-14T23:07:29.411Z,6.10
2022-10-14T23:09:55.991Z,7.00
2022-10-14T23:12:22.856Z,6.47
2022-10-14T23:14:51.214Z,6.43
2022-10-14T23:17:17.841Z,7.03
2022-10-14T23:19:46.097Z,7.37
2022-10-14T23:22:12.816Z,7.17
2022-10-14T23:24:39.390Z,7.07
2022-10-14T23:27:05.995Z,7.00
2022-10-14T23:29:32.582Z,7.30
2022-10-14T23:31:59.415Z,7.10
2022-10-14T23:34:26.012Z,7.63
2022-10-14T23:39:19.257Z,7.57
2022-10-14T23:46:11.476Z,8.07
2022-10-14T23:48:38.232Z,8.30
2022-10-14T23:51:05.889Z,8.27
2022-10-14T23:53:33.206Z,8.67
2022-10-14T23:56:00.193Z,8.53
2022-10-14T23:58:29.602Z,8.03
